»·PEaware :: AAL225 KSEA-KMFR

AAL225 :: KSEA-KMFR

FLIGHT INFORMATION

Flight Status: Arrived
Operator:
American Airlines
More flights by this operator :: More flights under this callsign
Pilot: Michael R. (16974)
Aircraft: AIRBUS A320
(A320)
More flights by this aircraft type
Origin: KSEA Seattle-Tacoma Intl
United States
Destination: KMFR Rogue Valley Intl-Medford
United States
More flights between these airports :: More routes between these airports
Route: HAROB6 FEPOT OED
File this flight plan on PilotEdge
Remarks:
Altitude:
(Current/Filed)
35,000ft
Speed:
(Current/Filed)
459kts
Departed: 29-Aug-18 08:08 PM
Arrived: 29-Aug-18 09:09 PM
Distance/Time
Traveled:
306nm/1:01
Distance/Time
To Go:
Arrived

Flight Plot

Page will automatically refresh every two minutes.

Flight plan parsing failed; only flown route is shown


Map Options




Map Legend


Flown Route
Filed Route
Departure Airport
Arrival Airport
Navaid (VOR, NDB)
Fix

Horizontal Profiles

Position Reports

Time Latitude Longitude Heading Altitude Ground
Speed
29-Aug-18 19:37 47.442572 -122.304019 135 436ft 0kts
29-Aug-18 19:38 47.442572 -122.304019 135 436ft 0kts
29-Aug-18 19:39 47.442572 -122.304019 135 436ft 0kts
29-Aug-18 19:40 47.442572 -122.304019 135 436ft 0kts
29-Aug-18 19:41 47.442572 -122.304019 135 436ft 0kts
29-Aug-18 19:42 47.442572 -122.304019 135 436ft 0kts
29-Aug-18 19:43 47.442572 -122.304019 135 436ft 0kts
29-Aug-18 19:44 47.442572 -122.304019 135 436ft 0kts
29-Aug-18 19:45 47.442572 -122.304019 135 436ft 0kts
29-Aug-18 19:46 47.442572 -122.304019 135 436ft 0kts
29-Aug-18 19:47 47.442572 -122.304019 135 436ft 0kts
29-Aug-18 19:48 47.442572 -122.304019 135 436ft 0kts
29-Aug-18 19:49 47.442572 -122.304019 135 436ft 0kts
29-Aug-18 19:50 47.442572 -122.304019 135 436ft 0kts
29-Aug-18 19:51 47.442572 -122.304019 135 436ft 0kts
29-Aug-18 19:52 47.442572 -122.304019 135 436ft 0kts
29-Aug-18 19:53 47.442572 -122.304019 135 436ft 0kts
29-Aug-18 19:54 47.442572 -122.304019 135 436ft 0kts
29-Aug-18 19:55 47.442572 -122.304019 135 436ft 0kts
29-Aug-18 19:56 47.442656 -122.304144 134 436ft 2kts
29-Aug-18 19:57 47.443077 -122.304771 135 436ft 2kts
29-Aug-18 19:58 47.443018 -122.305408 16 436ft 2kts
29-Aug-18 19:59 47.442900 -122.305423 0 436ft 0kts
29-Aug-18 20:00 47.442900 -122.305423 0 436ft 0kts
29-Aug-18 20:01 47.443307 -122.305540 326 436ft 0kts
29-Aug-18 20:02 47.443307 -122.305540 326 436ft 0kts
29-Aug-18 20:03 47.443307 -122.305540 326 436ft 0kts
29-Aug-18 20:04 47.448965 -122.306313 0 436ft 37kts
29-Aug-18 20:05 47.456843 -122.306238 359 436ft 28kts
29-Aug-18 20:06 47.463230 -122.306183 354 436ft 9kts
29-Aug-18 20:07 47.463536 -122.306350 330 436ft 0kts
29-Aug-18 20:08 47.463685 -122.307085 252 436ft 9kts
29-Aug-18 20:09 47.459079 -122.307745 180 436ft 90kts
29-Aug-18 20:10 47.407700 -122.308308 180 2412ft 231kts
29-Aug-18 20:11 47.336576 -122.316541 210 5532ft 285kts
29-Aug-18 20:12 47.309426 -122.416086 263 9500ft 274kts
29-Aug-18 20:13 47.309353 -122.526400 271 11491ft 328kts
29-Aug-18 20:14 47.313005 -122.660965 271 14553ft 328kts
29-Aug-18 20:15 47.308966 -122.796156 250 16954ft 340kts
29-Aug-18 20:16 47.273891 -122.927056 250 19377ft 350kts
29-Aug-18 20:17 47.229332 -123.055965 225 21410ft 372kts
29-Aug-18 20:18 47.144684 -123.149263 221 23272ft 386kts
29-Aug-18 20:19 47.046821 -123.216594 186 25015ft 420kts
29-Aug-18 20:20 46.929066 -123.208153 182 26485ft 434kts
29-Aug-18 20:21 46.813547 -123.199734 182 27586ft 446kts
29-Aug-18 20:22 46.689272 -123.190831 182 28757ft 454kts
29-Aug-18 20:23 46.562680 -123.181870 182 29797ft 461kts
29-Aug-18 20:24 46.433919 -123.172772 182 30835ft 465kts
29-Aug-18 20:25 46.306300 -123.163786 182 32072ft 462kts
29-Aug-18 20:26 46.177769 -123.154810 182 33113ft 460kts
29-Aug-18 20:27 46.050791 -123.145964 183 34196ft 457kts
29-Aug-18 20:28 45.924860 -123.137258 183 35024ft 457kts
29-Aug-18 20:29 45.801048 -123.128728 183 34995ft 457kts
29-Aug-18 20:30 45.674446 -123.120041 183 34983ft 457kts
29-Aug-18 20:31 45.547719 -123.111381 183 34991ft 457kts
29-Aug-18 20:32 45.421062 -123.102764 183 34990ft 457kts
29-Aug-18 20:33 45.294605 -123.094202 183 34988ft 457kts
29-Aug-18 20:34 45.167891 -123.085661 183 34985ft 457kts
29-Aug-18 20:35 45.041247 -123.077169 181 34965ft 458kts
29-Aug-18 20:36 44.914000 -123.068675 180 34957ft 461kts
29-Aug-18 20:37 44.788105 -123.060298 180 34983ft 462kts
29-Aug-18 20:38 44.659976 -123.051806 180 35014ft 462kts
29-Aug-18 20:39 44.531733 -123.043351 180 35016ft 462kts
29-Aug-18 20:40 44.403877 -123.034958 180 35012ft 462kts
29-Aug-18 20:41 44.275915 -123.026595 180 35009ft 462kts
29-Aug-18 20:42 44.148163 -123.018289 180 35009ft 462kts
29-Aug-18 20:43 44.020113 -123.009997 180 35009ft 462kts
29-Aug-18 20:44 43.893248 -123.001805 180 33899ft 462kts
29-Aug-18 20:45 43.766306 -122.993664 180 32176ft 464kts
29-Aug-18 20:46 43.637386 -122.985420 180 30332ft 467kts
29-Aug-18 20:47 43.507494 -122.977145 180 28238ft 471kts
29-Aug-18 20:48 43.376575 -122.968840 179 25849ft 475kts
29-Aug-18 20:49 43.244446 -122.960488 179 23258ft 473kts
29-Aug-18 20:50 43.116994 -122.952387 179 20296ft 452kts
29-Aug-18 20:51 42.993505 -122.944691 179 17255ft 440kts
29-Aug-18 20:52 42.876740 -122.959450 191 14462ft 417kts
29-Aug-18 20:53 42.774062 -122.984731 190 12168ft 339kts
29-Aug-18 20:54 42.686771 -123.005550 185 9961ft 316kts
29-Aug-18 20:55 42.611579 -122.953171 127 8021ft 320kts
29-Aug-18 20:56 42.562530 -122.861949 127 7443ft 277kts
29-Aug-18 20:57 42.518914 -122.781782 127 7455ft 263kts
29-Aug-18 20:58 42.476034 -122.703432 127 7454ft 257kts
29-Aug-18 20:59 42.433394 -122.625709 127 7454ft 258kts
29-Aug-18 21:00 42.389863 -122.548966 137 7455ft 257kts
29-Aug-18 21:01 42.327661 -122.508878 175 7465ft 243kts
29-Aug-18 21:02 42.264966 -122.525752 210 7466ft 229kts
29-Aug-18 21:03 42.222046 -122.586490 245 7121ft 229kts
29-Aug-18 21:04 42.212285 -122.672562 279 5618ft 237kts
29-Aug-18 21:05 42.237527 -122.748935 300 4440ft 215kts
29-Aug-18 21:06 42.270562 -122.808685 318 3392ft 195kts
29-Aug-18 21:07 42.304239 -122.836136 337 2592ft 142kts
29-Aug-18 21:08 42.345423 -122.857772 338 1784ft 135kts
29-Aug-18 21:09 42.373426 -122.872457 338 1318ft 94kts
29-Aug-18 21:10 42.379902 -122.877398 165 1309ft 12kts
29-Aug-18 21:11 42.376114 -122.875468 158 1313ft 23kts
29-Aug-18 21:12 42.369835 -122.872271 188 1322ft 11kts
29-Aug-18 21:13 42.368980 -122.873503 248 1321ft 0kts
29-Aug-18 21:14 42.368980 -122.873503 248 1321ft 0kts
29-Aug-18 21:15 42.368980 -122.873502 248 1321ft 0kts
29-Aug-18 21:16 42.368980 -122.873502 248 1321ft 0kts
29-Aug-18 21:17 42.368980 -122.873502 248 1321ft 0kts
29-Aug-18 21:18 42.368980 -122.873502 248 1321ft 0kts
29-Aug-18 21:19 42.368980 -122.873502 248 1321ft 0kts
29-Aug-18 21:20 42.368980 -122.873502 248 1321ft 0kts
29-Aug-18 21:21 42.368980 -122.873502 248 1321ft 0kts
29-Aug-18 21:22 42.368980 -122.873502 248 1321ft 0kts
29-Aug-18 21:23 42.368980 -122.873502 248 1321ft 0kts
29-Aug-18 21:24 42.368980 -122.873502 248 1321ft 0kts

Navigation Log

Ident Type
Flight plan parsing failed, navigation log unavailable